createdAt,value
2023-02-12T07:48:03.630Z,955.52
2023-02-12T07:49:04.421Z,955.48
2023-02-12T07:50:04.645Z,955.52
2023-02-12T07:51:04.864Z,955.52
2023-02-12T07:52:05.846Z,955.49
2023-02-12T07:53:06.530Z,955.51
2023-02-12T07:54:07.179Z,955.49
2023-02-12T07:55:07.484Z,955.49
2023-02-12T07:56:08.110Z,955.53
2023-02-12T07:57:08.762Z,955.51
2023-02-12T07:58:09.289Z,955.48
2023-02-12T07:59:09.514Z,955.5
2023-02-12T08:00:10.159Z,955.47
2023-02-12T08:01:10.383Z,955.49
2023-02-12T08:02:11.120Z,955.45
2023-02-12T08:03:12.290Z,955.47
2023-02-12T08:04:12.909Z,955.44
2023-02-12T08:05:13.583Z,955.48
2023-02-12T08:06:14.318Z,955.47
2023-02-12T08:07:14.967Z,955.46
2023-02-12T08:08:15.597Z,955.47
2023-02-12T08:09:16.334Z,955.45
2023-02-12T08:10:17.280Z,955.42
2023-02-12T08:11:17.592Z,955.41
2023-02-12T08:12:17.957Z,955.41
2023-02-12T08:13:19.096Z,955.43
2023-02-12T08:14:19.447Z,955.39
2023-02-12T08:15:19.677Z,955.4
2023-02-12T08:16:19.947Z,955.35
2023-02-12T08:17:20.878Z,955.32
2023-02-12T08:18:21.565Z,955.24
2023-02-12T08:19:26.096Z,955.21
2023-02-12T08:20:22.562Z,955.23
2023-02-12T08:21:22.865Z,955.21
2023-02-12T08:22:23.117Z,955.21
2023-02-12T08:23:24.043Z,955.2
2023-02-12T08:24:24.258Z,955.24
2023-02-12T08:25:24.912Z,955.24
2023-02-12T08:26:25.926Z,955.25
2023-02-12T08:27:26.443Z,955.21
2023-02-12T08:28:26.725Z,955.21
2023-02-12T08:29:27.141Z,955.21
2023-02-12T08:30:28.071Z,955.21
2023-02-12T08:31:28.210Z,955.18
2023-02-12T08:32:28.651Z,955.19
2023-02-12T08:33:28.885Z,955.17
2023-02-12T08:34:29.471Z,955.15
2023-02-12T08:35:29.983Z,955.13
2023-02-12T08:36:31.034Z,955.09
2023-02-12T08:37:31.958Z,955.09
2023-02-12T08:38:32.615Z,955.04
2023-02-12T08:39:33.548Z,955.02
2023-02-12T08:40:34.536Z,955.04
2023-02-12T08:41:34.950Z,955.05
2023-02-12T08:42:35.729Z,955
2023-02-12T08:43:36.371Z,955.04
2023-02-12T08:44:36.610Z,955.05
2023-02-12T08:45:36.901Z,955.03
2023-02-12T08:46:37.292Z,955.05
2023-02-12T08:47:37.511Z,955.08
2023-02-12T08:48:38.184Z,955.1
2023-02-12T08:49:38.785Z,955.11
2023-02-12T08:50:39.007Z,955.1
2023-02-12T08:51:39.303Z,955.16
2023-02-12T08:52:39.984Z,955.13
2023-02-12T08:53:40.483Z,955.14
2023-02-12T08:54:40.709Z,955.08
2023-02-12T08:55:40.908Z,955.09
2023-02-12T08:56:41.341Z,955.12
2023-02-12T08:57:41.575Z,955.09
2023-02-12T08:58:41.925Z,955.15
2023-02-12T08:59:42.570Z,955.16
2023-02-12T09:00:43.511Z,955.14
2023-02-12T09:01:43.807Z,955.18
2023-02-12T09:02:44.213Z,955.16
2023-02-12T09:03:45.034Z,955.15
2023-02-12T09:04:45.676Z,955.17
2023-02-12T09:05:46.604Z,955.15
2023-02-12T09:06:47.348Z,955.15
2023-02-12T09:07:47.720Z,955.17
2023-02-12T09:08:47.939Z,955.12
2023-02-12T09:09:48.887Z,955.14
2023-02-12T09:10:49.419Z,955.07
2023-02-12T09:11:49.708Z,955.08
2023-02-12T09:12:50.660Z,955.06
2023-02-12T09:13:51.565Z,955.04
2023-02-12T09:14:51.785Z,955.05
2023-02-12T09:15:52.007Z,955.02
2023-02-12T09:16:52.317Z,955.02
2023-02-12T09:17:53.269Z,955
2023-02-12T09:18:54.228Z,955.07
2023-02-12T09:19:54.828Z,955.05
2023-02-12T09:20:55.189Z,955.03
2023-02-12T09:21:56.374Z,955.06
2023-02-12T09:22:55.793Z,955.07
2023-02-12T09:23:56.051Z,955.1
2023-02-12T09:24:56.998Z,955.07
2023-02-12T09:25:57.503Z,955.08
2023-02-12T09:26:58.124Z,955.1
2023-02-12T09:27:58.381Z,955.05
2023-02-12T09:28:58.548Z,955.02
2023-02-12T09:29:58.788Z,955.04
2023-02-12T09:30:59.317Z,955.07
2023-02-12T09:31:59.483Z,955.06
2023-02-12T09:33:00.406Z,955.12
2023-02-12T09:34:01.072Z,955.15
2023-02-12T09:35:01.695Z,955.16
2023-02-12T09:36:02.389Z,955.18
2023-02-12T09:37:02.740Z,955.23
2023-02-12T09:38:02.964Z,955.22
2023-02-12T09:39:03.891Z,955.17
2023-02-12T09:40:04.848Z,955.21
2023-02-12T09:41:05.072Z,955.18
2023-02-12T09:42:05.296Z,955.19
2023-02-12T09:43:05.957Z,955.21
2023-02-12T09:44:06.895Z,955.25
2023-02-12T09:45:07.752Z,955.24
2023-02-12T09:46:08.740Z,955.28
2023-02-12T09:47:09.079Z,955.3
2023-02-12T09:48:10.034Z,955.33
2023-02-12T09:49:11.040Z,955.3
2023-02-12T09:50:11.640Z,955.27
2023-02-12T09:51:12.271Z,955.3
2023-02-12T09:52:13.195Z,955.24
2023-02-12T09:53:14.156Z,955.24
2023-02-12T09:54:14.389Z,955.26
2023-02-12T09:55:15.370Z,955.23
2023-02-12T09:56:16.052Z,955.21
2023-02-12T09:57:16.389Z,955.2
2023-02-12T09:58:17.037Z,955.26
2023-02-12T09:59:17.255Z,955.29
2023-02-12T10:00:17.779Z,955.31
2023-02-12T10:01:18.969Z,955.25
2023-02-12T10:02:19.882Z,955.33
2023-02-12T10:03:20.835Z,955.26
2023-02-12T10:04:21.160Z,955.3
2023-02-12T10:05:21.657Z,955.28
2023-02-12T10:06:21.866Z,955.25
2023-02-12T10:07:22.624Z,955.29
2023-02-12T10:08:24.792Z,955.27
2023-02-12T10:09:23.585Z,955.27
2023-02-12T10:10:24.227Z,955.26
2023-02-12T10:11:25.183Z,955.24
2023-02-12T10:12:25.733Z,955.28
2023-02-12T10:13:25.970Z,955.28
2023-02-12T10:14:26.986Z,955.29
2023-02-12T10:15:27.992Z,955.31
2023-02-12T10:16:28.263Z,955.28
2023-02-12T10:17:29.041Z,955.32
2023-02-12T10:18:29.987Z,955.28
2023-02-12T10:19:30.258Z,955.29
2023-02-12T10:20:30.860Z,955.29
2023-02-12T10:21:31.531Z,955.33
2023-02-12T10:22:32.056Z,955.32
2023-02-12T10:23:32.665Z,955.31
2023-02-12T10:24:32.959Z,955.37
2023-02-12T10:25:33.278Z,955.34
2023-02-12T10:26:33.508Z,955.34
2023-02-12T10:27:33.852Z,955.35
2023-02-12T10:28:34.608Z,955.34
2023-02-12T10:29:35.230Z,955.38
2023-02-12T10:30:36.185Z,955.41
2023-02-12T10:31:36.537Z,955.39
2023-02-12T10:32:36.890Z,955.37
2023-02-12T10:33:37.631Z,955.37
2023-02-12T10:34:38.072Z,955.33
2023-02-12T10:35:38.680Z,955.33
2023-02-12T10:36:38.980Z,955.36
2023-02-12T10:37:40.058Z,955.34
2023-02-12T10:38:40.564Z,955.31
2023-02-12T10:39:41.462Z,955.33
2023-02-12T10:40:41.831Z,955.35
2023-02-12T10:41:42.356Z,955.31
2023-02-12T10:42:42.602Z,955.36
2023-02-12T10:43:43.558Z,955.37
2023-02-12T10:44:43.888Z,955.37
2023-02-12T10:45:44.835Z,955.32
2023-02-12T10:46:45.454Z,955.34
2023-02-12T10:47:46.181Z,955.32
2023-02-12T10:48:46.402Z,955.33
2023-02-12T10:49:46.747Z,955.32
2023-02-12T10:50:47.348Z,955.35
2023-02-12T10:51:48.314Z,955.34
2023-02-12T10:52:48.964Z,955.34
2023-02-12T10:53:49.757Z,955.33
2023-02-12T10:54:49.987Z,955.28
2023-02-12T10:55:50.514Z,955.3
2023-02-12T10:56:51.305Z,955.27
2023-02-12T10:57:52.062Z,955.27
2023-02-12T10:58:53.039Z,955.3
2023-02-12T10:59:53.985Z,955.24
2023-02-12T11:00:54.210Z,955.21
2023-02-12T11:01:54.986Z,955.22
2023-02-12T11:02:55.111Z,955.2
2023-02-12T11:03:55.784Z,955.21
2023-02-12T11:04:56.115Z,955.21
2023-02-12T11:05:57.343Z,955.16
2023-02-12T11:06:57.902Z,955.19
2023-02-12T11:07:58.020Z,955.18
2023-02-12T11:08:58.259Z,955.18
2023-02-12T11:09:58.724Z,955.13
2023-02-12T11:10:59.670Z,955.14
2023-02-12T11:11:59.890Z,955.11
2023-02-12T11:13:00.399Z,955.11
2023-02-12T11:14:01.078Z,955.08
2023-02-12T11:15:02.026Z,955.04
2023-02-12T11:16:03.069Z,955.07
2023-02-12T11:17:03.421Z,955.04
2023-02-12T11:18:05.466Z,955.05
2023-02-12T11:19:04.857Z,955.08
2023-02-12T11:20:05.549Z,955.06
2023-02-12T11:21:06.030Z,955.06
2023-02-12T11:22:06.265Z,955.03
2023-02-12T11:23:06.492Z,955.03
2023-02-12T11:24:07.068Z,954.99
2023-02-12T11:25:07.288Z,955
2023-02-12T11:26:07.530Z,954.98
2023-02-12T11:27:08.524Z,954.91
2023-02-12T11:28:09.504Z,954.91
2023-02-12T11:29:10.468Z,954.9
2023-02-12T11:30:10.643Z,954.84
2023-02-12T11:31:11.193Z,954.87
2023-02-12T11:32:11.761Z,954.92
2023-02-12T11:33:12.264Z,954.88
2023-02-12T11:34:12.966Z,954.84
2023-02-12T11:35:13.227Z,954.84
2023-02-12T11:36:13.549Z,954.82
2023-02-12T11:37:14.132Z,954.81
2023-02-12T11:38:15.201Z,954.82
2023-02-12T11:39:15.647Z,954.84
2023-02-12T11:40:16.578Z,954.83
2023-02-12T11:41:17.519Z,954.81
2023-02-12T11:42:18.451Z,954.82
2023-02-12T11:43:19.415Z,954.79
2023-02-12T11:44:20.392Z,954.79
2023-02-12T11:45:20.600Z,954.79
2023-02-12T11:46:21.594Z,954.79
2023-02-12T11:47:22.524Z,954.75
2023-02-12T11:48:23.552Z,954.81
2023-02-12T11:49:24.220Z,954.77
2023-02-12T11:50:25.050Z,954.73
2023-02-12T11:51:25.693Z,954.74
2023-02-12T11:52:26.671Z,954.73
2023-02-12T11:53:27.341Z,954.75
2023-02-12T11:54:28.282Z,954.76
2023-02-12T11:55:28.525Z,954.76
2023-02-12T11:56:29.246Z,954.72
2023-02-12T11:57:29.876Z,954.72
2023-02-12T11:58:30.979Z,954.71
2023-02-12T11:59:31.641Z,954.71
2023-02-12T12:00:32.625Z,954.67
2023-02-12T12:01:33.208Z,954.7
2023-02-12T12:02:33.820Z,954.68
2023-02-12T12:03:34.040Z,954.69
2023-02-12T12:04:34.962Z,954.68
2023-02-12T12:05:35.193Z,954.64
2023-02-12T12:06:35.821Z,954.64
2023-02-12T12:07:36.090Z,954.59
2023-02-12T12:08:36.856Z,954.61
2023-02-12T12:09:37.880Z,954.65
2023-02-12T12:10:38.105Z,954.64
2023-02-12T12:11:39.050Z,954.62
2023-02-12T12:12:39.991Z,954.63
2023-02-12T12:13:40.664Z,954.66
2023-02-12T12:14:41.346Z,954.63
2023-02-12T12:15:42.299Z,954.61
2023-02-12T12:16:43.408Z,954.63
2023-02-12T12:17:44.437Z,954.6
2023-02-12T12:18:45.539Z,954.59
2023-02-12T12:19:46.536Z,954.51
2023-02-12T12:20:47.537Z,954.56
2023-02-12T12:21:48.136Z,954.61
2023-02-12T12:22:48.671Z,954.59
2023-02-12T12:23:49.599Z,954.56
2023-02-12T12:24:49.818Z,954.51
2023-02-12T12:25:50.048Z,954.53
2023-02-12T12:26:50.617Z,954.5
2023-02-12T12:27:50.966Z,954.47
2023-02-12T12:28:51.580Z,954.48
2023-02-12T12:29:51.842Z,954.43
2023-02-12T12:30:52.323Z,954.46
2023-02-12T12:31:52.718Z,954.43
2023-02-12T12:32:52.940Z,954.5
2023-02-12T12:33:53.148Z,954.49
2023-02-12T12:34:54.087Z,954.5
2023-02-12T12:35:54.912Z,954.5
2023-02-12T12:36:54.540Z,954.5
2023-02-12T12:37:54.783Z,954.45
2023-02-12T12:38:55.865Z,954.45
2023-02-12T12:39:56.540Z,954.43
2023-02-12T12:40:56.839Z,954.45
2023-02-12T12:41:57.060Z,954.4
2023-02-12T12:42:57.326Z,954.4
2023-02-12T12:43:57.555Z,954.36
2023-02-12T12:44:58.490Z,954.37
2023-02-12T12:45:59.008Z,954.39
2023-02-12T12:46:59.317Z,954.36
2023-02-12T12:48:00.247Z,954.34
2023-02-12T12:49:01.290Z,954.36
2023-02-12T12:50:02.137Z,954.34
2023-02-12T12:51:03.126Z,954.37
2023-02-12T12:52:03.433Z,954.32
2023-02-12T12:53:03.640Z,954.33
2023-02-12T12:54:03.870Z,954.32
2023-02-12T12:55:04.090Z,954.31
2023-02-12T12:56:04.709Z,954.34
2023-02-12T12:57:04.972Z,954.33
2023-02-12T12:58:05.470Z,954.32
2023-02-12T12:59:06.061Z,954.26
2023-02-12T13:00:06.277Z,954.28
2023-02-12T13:01:06.875Z,954.23
2023-02-12T13:02:07.573Z,954.22
2023-02-12T13:03:08.309Z,954.2
2023-02-12T13:04:08.535Z,954.23
2023-02-12T13:05:08.972Z,954.21
2023-02-12T13:06:10.150Z,954.19
2023-02-12T13:07:10.714Z,954.23
2023-02-12T13:08:11.018Z,954.19
2023-02-12T13:09:11.270Z,954.18
2023-02-12T13:10:11.501Z,954.12
2023-02-12T13:11:11.612Z,954.12
2023-02-12T13:12:12.261Z,954.14
2023-02-12T13:13:12.470Z,954.15
2023-02-12T13:14:12.981Z,954.1
2023-02-12T13:15:13.929Z,954.08
2023-02-12T13:16:14.674Z,954.07
2023-02-12T13:17:14.763Z,954.08
2023-02-12T13:18:14.981Z,954.09
2023-02-12T13:19:15.846Z,954.11
2023-02-12T13:20:16.052Z,954.13
2023-02-12T13:21:17.014Z,954.12
2023-02-12T13:22:17.305Z,954.16
2023-02-12T13:23:17.727Z,954.11
2023-02-12T13:24:18.446Z,954.1
2023-02-12T13:25:19.401Z,954.09
2023-02-12T13:26:19.630Z,954.07
2023-02-12T13:27:20.152Z,954.09
2023-02-12T13:28:21.102Z,954.1
2023-02-12T13:29:22.072Z,954.1
2023-02-12T13:30:22.426Z,954.09
2023-02-12T13:31:32.848Z,954.12
2023-02-12T13:32:23.374Z,954.09
2023-02-12T13:33:24.171Z,954.08
2023-02-12T13:34:24.862Z,954.09
2023-02-12T13:35:25.130Z,954.1
2023-02-12T13:36:26.084Z,954.08
2023-02-12T13:37:26.407Z,954.09
2023-02-12T13:38:26.659Z,954.06
2023-02-12T13:39:27.481Z,954.04
2023-02-12T13:40:27.778Z,954
2023-02-12T13:41:28.699Z,954.05
2023-02-12T13:42:28.895Z,953.99
2023-02-12T13:43:29.908Z,954.01
2023-02-12T13:44:30.842Z,954
2023-02-12T13:45:31.071Z,953.99
2023-02-12T13:46:31.411Z,953.99
2023-02-12T13:47:31.712Z,954.01
2023-02-12T13:48:32.379Z,954.03
2023-02-12T13:49:32.700Z,954.03
2023-02-12T13:50:33.636Z,953.99
2023-02-12T13:51:33.874Z,954.02
2023-02-12T13:52:34.460Z,954.04
2023-02-12T13:53:35.410Z,954.01
2023-02-12T13:54:36.342Z,953.98
2023-02-12T13:55:36.855Z,954.02
2023-02-12T13:56:37.053Z,954.01
2023-02-12T13:57:37.268Z,954.04
2023-02-12T13:58:37.923Z,954.03
2023-02-12T13:59:38.690Z,954.02
2023-02-12T14:00:39.219Z,954.05
2023-02-12T14:01:39.993Z,954
2023-02-12T14:02:40.108Z,953.98
2023-02-12T14:03:40.240Z,954
2023-02-12T14:04:40.468Z,954.01
2023-02-12T14:05:40.678Z,954.02
2023-02-12T14:06:41.019Z,954.01
2023-02-12T14:07:41.536Z,954.01
2023-02-12T14:08:42.208Z,954.05
2023-02-12T14:09:42.380Z,954.04
2023-02-12T14:10:42.890Z,954.01
2023-02-12T14:11:43.830Z,954.02
2023-02-12T14:12:44.501Z,954
2023-02-12T14:13:45.022Z,953.97
2023-02-12T14:14:45.674Z,953.99
2023-02-12T14:15:46.725Z,953.96
2023-02-12T14:16:47.404Z,953.97
2023-02-12T14:17:49.767Z,953.95
2023-02-12T14:18:48.393Z,953.95
2023-02-12T14:19:48.963Z,953.96
2023-02-12T14:20:49.210Z,953.91
2023-02-12T14:21:50.173Z,953.96
2023-02-12T14:22:50.472Z,953.93
2023-02-12T14:23:50.793Z,953.92
2023-02-12T14:24:51.506Z,953.91
2023-02-12T14:25:52.508Z,953.95
2023-02-12T14:26:53.392Z,953.9
2023-02-12T14:27:54.342Z,953.89
2023-02-12T14:28:55.036Z,953.9
2023-02-12T14:29:55.790Z,953.92
2023-02-12T14:30:56.630Z,953.92
2023-02-12T14:31:56.887Z,953.93
2023-02-12T14:32:57.225Z,953.92
2023-02-12T14:33:57.742Z,953.93
2023-02-12T14:34:58.704Z,953.91
2023-02-12T14:35:59.668Z,953.94
2023-02-12T14:37:00.626Z,953.91
2023-02-12T14:38:01.212Z,953.92
2023-02-12T14:39:01.407Z,953.93
2023-02-12T14:40:01.670Z,953.96
2023-02-12T14:41:02.606Z,953.95
2023-02-12T14:42:02.866Z,953.98
2023-02-12T14:43:03.813Z,953.98
2023-02-12T14:44:04.744Z,953.93
2023-02-12T14:45:04.982Z,953.93
2023-02-12T14:46:05.208Z,953.94
2023-02-12T14:47:05.649Z,953.96
2023-02-12T14:48:06.015Z,953.96
2023-02-12T14:49:07.001Z,953.96
2023-02-12T14:50:07.556Z,953.95
2023-02-12T14:51:08.544Z,953.9
2023-02-12T14:52:09.180Z,953.96
2023-02-12T14:53:09.746Z,953.97
2023-02-12T14:54:10.279Z,953.95
2023-02-12T14:55:10.945Z,953.93
2023-02-12T14:56:11.450Z,953.94
2023-02-12T14:57:12.383Z,953.95
2023-02-12T14:58:13.338Z,953.91
2023-02-12T14:59:14.350Z,953.94
2023-02-12T15:00:14.961Z,953.9
2023-02-12T15:01:15.383Z,953.9
2023-02-12T15:02:15.568Z,953.89
2023-02-12T15:03:16.518Z,953.89
2023-02-12T15:04:17.044Z,953.86
2023-02-12T15:05:18.042Z,953.85
2023-02-12T15:06:18.811Z,953.9
2023-02-12T15:07:19.777Z,953.91
2023-02-12T15:08:20.138Z,953.91
2023-02-12T15:09:21.139Z,953.94
2023-02-12T15:10:21.430Z,953.96
2023-02-12T15:11:21.673Z,953.93
2023-02-12T15:12:21.895Z,953.97
2023-02-12T15:13:22.269Z,953.9
2023-02-12T15:14:22.508Z,953.91
2023-02-12T15:15:23.458Z,953.93
2023-02-12T15:16:23.893Z,953.92
2023-02-12T15:17:24.101Z,953.93
2023-02-12T15:18:25.094Z,953.89
2023-02-12T15:19:26.049Z,953.88
2023-02-12T15:20:26.949Z,953.88
2023-02-12T15:21:27.572Z,953.86
2023-02-12T15:22:27.987Z,953.86
2023-02-12T15:23:28.574Z,953.92
2023-02-12T15:24:29.138Z,953.89
2023-02-12T15:25:30.094Z,953.91
2023-02-12T15:26:30.329Z,953.89
2023-02-12T15:27:30.624Z,953.95
2023-02-12T15:28:30.904Z,953.88
2023-02-12T15:29:31.473Z,953.91
2023-02-12T15:30:32.566Z,953.86
2023-02-12T15:31:33.743Z,953.85
2023-02-12T15:32:34.258Z,953.83
2023-02-12T15:33:34.474Z,953.8
2023-02-12T15:34:35.120Z,953.82
2023-02-12T15:35:36.054Z,953.79
2023-02-12T15:36:36.979Z,953.77
2023-02-12T15:37:37.648Z,953.79
2023-02-12T15:38:37.940Z,953.77
2023-02-12T15:39:38.693Z,953.8
2023-02-12T15:40:39.761Z,953.82
2023-02-12T15:41:40.414Z,953.81
2023-02-12T15:42:40.715Z,953.8
2023-02-12T15:43:40.923Z,953.79
2023-02-12T15:44:41.567Z,953.81
2023-02-12T15:45:42.293Z,953.79
2023-02-12T15:46:42.812Z,953.77
2023-02-12T15:47:43.863Z,953.8
2023-02-12T15:48:44.428Z,953.76
2023-02-12T15:49:45.420Z,953.81
2023-02-12T15:50:46.186Z,953.82
2023-02-12T15:51:46.426Z,953.78
2023-02-12T15:52:46.656Z,953.78
2023-02-12T15:53:47.243Z,953.74
2023-02-12T15:54:48.259Z,953.75
2023-02-12T15:55:48.919Z,953.74
2023-02-12T15:56:49.733Z,953.79
2023-02-12T15:57:50.673Z,953.72
2023-02-12T15:58:50.973Z,953.75
2023-02-12T15:59:51.258Z,953.71
2023-02-12T16:00:51.611Z,953.77
2023-02-12T16:01:52.322Z,953.74
2023-02-12T16:02:52.473Z,953.72
2023-02-12T16:03:53.456Z,953.75
2023-02-12T16:04:54.344Z,953.69
2023-02-12T16:05:55.185Z,953.67
2023-02-12T16:06:55.003Z,953.71
2023-02-12T16:07:55.711Z,953.74
2023-02-12T16:08:56.016Z,953.71
2023-02-12T16:09:56.958Z,953.73
2023-02-12T16:10:57.995Z,953.7
2023-02-12T16:11:58.578Z,953.69
2023-02-12T16:12:58.839Z,953.76
2023-02-12T16:13:59.045Z,953.69
2023-02-12T16:14:59.757Z,953.75
2023-02-12T16:16:00.027Z,953.75
2023-02-12T16:17:00.460Z,953.75
2023-02-12T16:18:01.406Z,953.77
2023-02-12T16:19:01.687Z,953.73
2023-02-12T16:20:01.897Z,953.77
2023-02-12T16:21:02.106Z,953.79
2023-02-12T16:22:03.084Z,953.78
2023-02-12T16:23:04.697Z,953.78
2023-02-12T16:24:04.152Z,953.81
2023-02-12T16:25:05.102Z,953.81
2023-02-12T16:26:06.039Z,953.81
2023-02-12T16:27:06.353Z,953.76
2023-02-12T16:28:06.818Z,953.8
2023-02-12T16:29:07.230Z,953.79
2023-02-12T16:30:07.476Z,953.81
2023-02-12T16:31:07.909Z,953.78
2023-02-12T16:32:08.411Z,953.8
2023-02-12T16:33:09.360Z,953.79
2023-02-12T16:34:10.005Z,953.77
2023-02-12T16:35:10.211Z,953.8
2023-02-12T16:36:10.423Z,953.75
2023-02-12T16:37:11.489Z,953.77
2023-02-12T16:38:12.455Z,953.75
2023-02-12T16:39:13.052Z,953.78
2023-02-12T16:40:14.040Z,953.75
2023-02-12T16:41:14.402Z,953.72
2023-02-12T16:42:14.941Z,953.77
2023-02-12T16:43:15.150Z,953.8
2023-02-12T16:44:15.645Z,953.79
2023-02-12T16:45:15.880Z,953.77
2023-02-12T16:46:16.842Z,953.8
2023-02-12T16:47:17.776Z,953.8
2023-02-12T16:48:18.292Z,953.83
2023-02-12T16:49:18.494Z,953.81
2023-02-12T16:50:19.212Z,953.8
2023-02-12T16:51:20.111Z,953.81
2023-02-12T16:52:21.092Z,953.79
2023-02-12T16:53:22.057Z,953.84
2023-02-12T16:54:22.654Z,953.88
2023-02-12T16:55:22.898Z,953.88
2023-02-12T16:56:23.455Z,953.88
2023-02-12T16:57:24.005Z,953.87
2023-02-12T16:58:24.930Z,953.83
2023-02-12T16:59:25.134Z,953.88
2023-02-12T17:00:25.978Z,953.85
2023-02-12T17:01:26.465Z,953.87
2023-02-12T17:02:26.689Z,953.92
2023-02-12T17:03:27.815Z,953.88
2023-02-12T17:04:28.419Z,953.92
2023-02-12T17:05:29.350Z,953.87
2023-02-12T17:06:29.592Z,953.88
2023-02-12T17:07:30.528Z,953.88
2023-02-12T17:08:31.191Z,953.89
2023-02-12T17:09:31.465Z,953.89
2023-02-12T17:10:32.410Z,953.89
2023-02-12T17:11:33.415Z,953.94
2023-02-12T17:12:33.630Z,953.94
2023-02-12T17:13:34.324Z,953.91
2023-02-12T17:14:34.964Z,953.91
2023-02-12T17:15:35.594Z,953.93
2023-02-12T17:16:36.544Z,953.94
2023-02-12T17:17:37.392Z,953.95
2023-02-12T17:18:37.748Z,954.01
2023-02-12T17:19:38.004Z,954
2023-02-12T17:20:38.224Z,953.99
2023-02-12T17:21:38.496Z,953.98
2023-02-12T17:22:39.452Z,954.03
2023-02-12T17:23:41.091Z,953.99
2023-02-12T17:24:40.790Z,953.97
2023-02-12T17:25:41.299Z,954.01
2023-02-12T17:26:41.776Z,953.96
2023-02-12T17:27:42.720Z,954.03
2023-02-12T17:28:43.296Z,954
2023-02-12T17:29:43.538Z,954
2023-02-12T17:30:43.810Z,953.99
2023-02-12T17:31:44.530Z,953.97
2023-02-12T17:32:45.479Z,953.98
2023-02-12T17:33:46.289Z,954.01
2023-02-12T17:34:49.047Z,954.02
2023-02-12T17:35:47.248Z,953.95
2023-02-12T17:36:47.777Z,953.99
2023-02-12T17:37:48.453Z,953.97
2023-02-12T17:38:49.200Z,953.99
2023-02-12T17:39:49.490Z,953.96
2023-02-12T17:40:50.219Z,953.97
2023-02-12T17:41:51.192Z,953.97
2023-02-12T17:42:52.163Z,953.96
2023-02-12T17:43:53.095Z,953.95
2023-02-12T17:44:53.577Z,953.98
2023-02-12T17:45:53.848Z,954
2023-02-12T17:46:54.006Z,953.98
2023-02-12T17:47:54.602Z,953.94
2023-02-12T17:48:55.125Z,953.93
2023-02-12T17:49:55.337Z,953.97
2023-02-12T17:50:55.888Z,953.97
2023-02-12T17:51:56.051Z,953.98
2023-02-12T17:52:56.725Z,953.97
2023-02-12T17:53:57.150Z,953.91
2023-02-12T17:54:57.697Z,953.9
2023-02-12T17:55:57.939Z,953.93
2023-02-12T17:56:58.870Z,953.88
2023-02-12T17:57:59.114Z,953.89
2023-02-12T17:59:00.034Z,953.87
2023-02-12T18:00:00.439Z,953.86
2023-02-12T18:01:01.128Z,953.85
2023-02-12T18:02:01.860Z,953.86
2023-02-12T18:03:02.850Z,953.84
2023-02-12T18:04:03.062Z,953.88
2023-02-12T18:05:03.861Z,953.84
2023-02-12T18:06:04.163Z,953.83
2023-02-12T18:07:04.796Z,953.83
2023-02-12T18:08:04.995Z,953.82
2023-02-12T18:09:05.498Z,953.82
2023-02-12T18:10:05.800Z,953.85
2023-02-12T18:11:06.733Z,953.83
2023-02-12T18:12:07.443Z,953.8
2023-02-12T18:13:07.636Z,953.81
2023-02-12T18:14:08.574Z,953.8
2023-02-12T18:15:09.056Z,953.82
2023-02-12T18:16:09.292Z,953.8
2023-02-12T18:17:10.192Z,953.79
2023-02-12T18:18:10.410Z,953.79
2023-02-12T18:19:10.615Z,953.79
2023-02-12T18:20:10.817Z,953.75
2023-02-12T18:21:11.792Z,953.8
2023-02-12T18:22:12.819Z,953.74
2023-02-12T18:23:13.732Z,953.76
2023-02-12T18:24:13.961Z,953.75
2023-02-12T18:25:14.559Z,953.74
2023-02-12T18:26:15.080Z,953.68
2023-02-12T18:27:16.023Z,953.72
2023-02-12T18:28:16.680Z,953.69
2023-02-12T18:29:16.892Z,953.72
2023-02-12T18:30:17.077Z,953.68
2023-02-12T18:31:17.407Z,953.67
2023-02-12T18:32:18.215Z,953.65
2023-02-12T18:33:18.695Z,953.63
2023-02-12T18:34:19.183Z,953.63
2023-02-12T18:35:19.466Z,953.67
2023-02-12T18:36:19.799Z,953.6
2023-02-12T18:37:20.003Z,953.6
2023-02-12T18:38:20.302Z,953.59
2023-02-12T18:39:20.539Z,953.59
2023-02-12T18:40:20.841Z,953.62
2023-02-12T18:41:21.590Z,953.59
2023-02-12T18:42:22.074Z,953.62
2023-02-12T18:43:24.627Z,953.64
2023-02-12T18:44:23.043Z,953.6
2023-02-12T18:45:23.257Z,953.61
2023-02-12T18:46:23.763Z,953.59
2023-02-12T18:47:24.632Z,953.6
2023-02-12T18:48:25.332Z,953.61
2023-02-12T18:49:25.825Z,953.62
2023-02-12T18:50:26.293Z,953.62
2023-02-12T18:51:26.497Z,953.63
2023-02-12T18:52:27.233Z,953.62
2023-02-12T18:53:27.603Z,953.65
2023-02-12T18:54:28.566Z,953.64
2023-02-12T18:55:29.151Z,953.6
2023-02-12T18:56:29.378Z,953.63
2023-02-12T18:57:30.391Z,953.63
2023-02-12T18:58:31.027Z,953.61
2023-02-12T18:59:31.285Z,953.6
2023-02-12T19:00:32.292Z,953.59
2023-02-12T19:01:32.572Z,953.62
2023-02-12T19:02:33.431Z,953.63
2023-02-12T19:03:33.872Z,953.62
2023-02-12T19:04:34.114Z,953.62
2023-02-12T19:05:34.607Z,953.59
2023-02-12T19:06:35.153Z,953.64
2023-02-12T19:07:35.811Z,953.63
2023-02-12T19:08:36.008Z,953.64
2023-02-12T19:09:36.916Z,953.63
2023-02-12T19:10:37.452Z,953.65
2023-02-12T19:11:37.929Z,953.64
2023-02-12T19:12:39.000Z,953.66
2023-02-12T19:13:39.240Z,953.64
2023-02-12T19:14:39.752Z,953.65
2023-02-12T19:15:39.980Z,953.66
2023-02-12T19:16:40.241Z,953.67
2023-02-12T19:17:40.612Z,953.64
2023-02-12T19:18:40.827Z,953.65
2023-02-12T19:19:41.475Z,953.67
2023-02-12T19:20:41.682Z,953.66
2023-02-12T19:21:42.423Z,953.64
2023-02-12T19:22:44.460Z,953.66
2023-02-12T19:23:44.485Z,953.64
2023-02-12T19:24:47.087Z,953.66
2023-02-12T19:25:44.833Z,953.63
2023-02-12T19:26:45.085Z,953.66
2023-02-12T19:27:45.443Z,953.64
2023-02-12T19:28:45.955Z,953.66
2023-02-12T19:29:46.471Z,953.66
2023-02-12T19:30:46.691Z,953.66
2023-02-12T19:31:47.539Z,953.64
2023-02-12T19:32:48.225Z,953.62
2023-02-12T19:33:49.144Z,953.61
2023-02-12T19:34:50.076Z,953.61
2023-02-12T19:35:50.760Z,953.62
2023-02-12T19:36:51.307Z,953.58
2023-02-12T19:37:51.899Z,953.58
2023-02-12T19:38:52.821Z,953.58
2023-02-12T19:39:53.473Z,953.54
2023-02-12T19:40:54.210Z,953.55
2023-02-12T19:41:54.624Z,953.52
2023-02-12T19:42:54.680Z,953.54
2023-02-12T19:43:55.327Z,953.48
2023-02-12T19:44:55.573Z,953.52
2023-02-12T19:45:56.101Z,953.49
2023-02-12T19:46:56.784Z,953.48
2023-02-12T19:47:57.005Z,953.48
2023-02-12T19:48:57.931Z,953.45
2023-02-12T19:49:58.596Z,953.49
2023-02-12T19:50:58.935Z,953.49
2023-02-12T19:51:59.168Z,953.46
2023-02-12T19:52:59.434Z,953.49
2023-02-12T19:53:59.646Z,953.5
2023-02-12T19:54:59.900Z,953.47
2023-02-12T19:56:00.344Z,953.48
2023-02-12T19:57:00.582Z,953.44
2023-02-12T19:58:01.288Z,953.45
2023-02-12T19:59:01.921Z,953.5
2023-02-12T20:00:02.125Z,953.47
2023-02-12T20:01:02.349Z,953.48
2023-02-12T20:02:03.420Z,953.45
2023-02-12T20:03:03.580Z,953.47
2023-02-12T20:04:04.206Z,953.48
2023-02-12T20:05:05.128Z,953.48
2023-02-12T20:06:05.341Z,953.46
2023-02-12T20:07:05.692Z,953.51
2023-02-12T20:08:05.892Z,953.43
2023-02-12T20:09:06.107Z,953.44
2023-02-12T20:10:07.045Z,953.44
2023-02-12T20:11:07.638Z,953.4
2023-02-12T20:12:07.858Z,953.39
2023-02-12T20:13:08.297Z,953.41
2023-02-12T20:14:08.509Z,953.35
2023-02-12T20:15:09.462Z,953.39
2023-02-12T20:16:09.759Z,953.37
2023-02-12T20:17:10.544Z,953.38
2023-02-12T20:18:11.187Z,953.34
2023-02-12T20:19:12.136Z,953.36
2023-02-12T20:20:12.745Z,953.38
2023-02-12T20:21:13.232Z,953.36
2023-02-12T20:22:14.154Z,953.35
2023-02-12T20:23:14.491Z,953.34
2023-02-12T20:24:14.982Z,953.3
2023-02-12T20:25:15.500Z,953.34
2023-02-12T20:26:15.800Z,953.3